createdAt,value
2019-05-05T00:02:04.590Z,5.30
2019-05-05T00:04:46.300Z,5.30
2019-05-05T00:07:31.422Z,5.30
2019-05-05T00:10:04.607Z,5.30
2019-05-05T00:12:58.816Z,5.20
2019-05-05T00:16:07.495Z,5.20
2019-05-05T00:18:38.799Z,5.20
2019-05-05T00:21:10.127Z,5.20
2019-05-05T00:23:41.343Z,5.20
2019-05-05T00:26:12.353Z,5.20
2019-05-05T00:28:44.788Z,5.30
2019-05-05T00:31:17.331Z,5.20
2019-05-05T00:33:48.318Z,5.10
2019-05-05T00:36:19.546Z,5.10
2019-05-05T00:38:50.687Z,5.20
2019-05-05T00:41:21.978Z,5.20
2019-05-05T00:43:55.206Z,5.20
2019-05-05T00:46:41.035Z,5.20
2019-05-05T00:49:11.944Z,5.20
2019-05-05T00:51:44.328Z,5.20
2019-05-05T00:54:15.699Z,5.30
2019-05-05T00:56:46.940Z,5.20
2019-05-05T00:59:19.792Z,5.20
2019-05-05T01:02:15.071Z,5.20
2019-05-05T01:05:08.436Z,5.20
2019-05-05T01:07:39.765Z,5.20
2019-05-05T01:10:10.932Z,5.30
2019-05-05T01:12:42.355Z,5.30
2019-05-05T01:15:14.993Z,5.30
2019-05-05T01:17:46.120Z,5.30
2019-05-05T01:20:17.415Z,5.30
2019-05-05T01:22:48.735Z,5.30
2019-05-05T01:25:20.015Z,5.40
2019-05-05T01:27:51.149Z,5.40
2019-05-05T01:30:26.205Z,5.30
2019-05-05T01:33:05.376Z,5.30
2019-05-05T01:35:36.351Z,5.30
2019-05-05T01:38:14.243Z,5.40
2019-05-05T01:40:54.781Z,5.40
2019-05-05T01:43:26.195Z,5.40
2019-05-05T01:45:57.670Z,5.50
2019-05-05T01:48:28.979Z,5.40
2019-05-05T01:51:01.907Z,5.20
2019-05-05T01:53:34.739Z,5.10
2019-05-05T01:56:06.123Z,5.00
2019-05-05T01:58:37.596Z,5.10
2019-05-05T02:01:08.663Z,5.20
2019-05-05T02:03:39.673Z,5.30
2019-05-05T02:06:10.563Z,5.30
2019-05-05T02:08:41.870Z,5.30
2019-05-05T02:11:15.480Z,5.40
2019-05-05T02:13:46.128Z,5.40
2019-05-05T02:16:17.623Z,5.50
2019-05-05T02:18:48.870Z,5.50
2019-05-05T02:21:20.167Z,5.60
2019-05-05T02:23:51.348Z,5.60
2019-05-05T02:26:24.516Z,5.60
2019-05-05T02:29:14.215Z,5.60
2019-05-05T02:32:06.295Z,5.60
2019-05-05T02:34:41.208Z,5.60
2019-05-05T02:37:12.445Z,5.60
2019-05-05T02:39:50.471Z,5.60
2019-05-05T02:42:17.033Z,5.60
2019-05-05T02:44:48.750Z,5.60
2019-05-05T02:47:45.477Z,5.60
2019-05-05T02:50:17.589Z,5.60
2019-05-05T02:52:49.450Z,5.60
2019-05-05T02:55:23.488Z,5.60
2019-05-05T02:57:55.719Z,5.60
2019-05-05T03:00:45.480Z,5.50
2019-05-05T03:03:16.874Z,5.50
2019-05-05T03:05:48.195Z,5.60
2019-05-05T03:08:19.347Z,5.50
2019-05-05T03:10:50.832Z,5.50
2019-05-05T03:13:24.298Z,5.50
2019-05-05T03:16:15.741Z,5.40
2019-05-05T03:18:46.803Z,5.40
2019-05-05T03:21:19.723Z,5.40
2019-05-05T03:23:50.916Z,5.40
2019-05-05T03:26:23.402Z,5.40
2019-05-05T03:28:58.353Z,5.30
2019-05-05T03:31:29.500Z,5.30
2019-05-05T03:34:01.027Z,5.40
2019-05-05T03:36:33.966Z,5.40
2019-05-05T03:39:07.231Z,5.40
2019-05-05T03:41:49.339Z,5.40
2019-05-05T03:44:26.591Z,5.40
2019-05-05T03:46:57.586Z,5.30
2019-05-05T03:49:29.176Z,5.20
2019-05-05T03:52:00.773Z,5.20
2019-05-05T03:54:34.256Z,5.10
2019-05-05T03:57:08.375Z,5.10
2019-05-05T03:59:41.766Z,5.10
2019-05-05T04:02:27.847Z,5.10
2019-05-05T04:05:04.648Z,5.10
2019-05-05T04:07:36.809Z,5.10
2019-05-05T04:10:09.836Z,5.10
2019-05-05T04:12:43.495Z,5.00
2019-05-05T04:15:14.870Z,5.00
2019-05-05T04:18:00.115Z,5.00
2019-05-05T04:20:39.422Z,4.90
2019-05-05T04:23:10.601Z,4.90
2019-05-05T04:25:43.796Z,4.90
2019-05-05T04:28:14.367Z,4.90
2019-05-05T04:30:45.521Z,4.90
2019-05-05T04:33:16.676Z,5.00
2019-05-05T04:35:48.098Z,5.00
2019-05-05T04:38:19.251Z,4.90
2019-05-05T04:40:50.407Z,4.80
2019-05-05T04:43:24.100Z,4.80
2019-05-05T04:45:55.327Z,4.90
2019-05-05T04:48:34.472Z,4.90
2019-05-05T04:51:24.774Z,5.10
2019-05-05T04:54:16.643Z,5.30
2019-05-05T04:56:47.683Z,5.40
2019-05-05T04:59:18.896Z,5.60
2019-05-05T05:01:54.462Z,5.70
2019-05-05T05:04:44.122Z,5.80
2019-05-05T05:07:16.524Z,6.00
2019-05-05T05:09:47.703Z,6.10
2019-05-05T05:12:18.839Z,6.30
2019-05-05T05:14:50.139Z,6.40
2019-05-05T05:17:31.151Z,6.50
2019-05-05T05:20:03.751Z,6.60
2019-05-05T05:22:35.012Z,6.60
2019-05-05T05:25:05.942Z,6.70
2019-05-05T05:27:37.108Z,6.70
2019-05-05T05:30:08.547Z,6.70
2019-05-05T05:32:40.020Z,6.60
2019-05-05T05:35:25.498Z,6.70
2019-05-05T05:37:57.719Z,6.70
2019-05-05T05:41:01.852Z,6.70
2019-05-05T05:43:54.725Z,6.70
2019-05-05T05:46:44.046Z,6.70
2019-05-05T05:49:21.702Z,6.70
2019-05-05T05:51:53.865Z,6.80
2019-05-05T05:54:25.083Z,6.90
2019-05-05T05:56:56.423Z,7.00
2019-05-05T05:59:27.567Z,7.20
2019-05-05T06:02:09.132Z,7.30
2019-05-05T06:04:31.575Z,7.50
2019-05-05T06:07:04.100Z,7.70
2019-05-05T06:09:35.120Z,7.90
2019-05-05T06:12:06.023Z,8.20
2019-05-05T06:14:37.752Z,8.20
2019-05-05T06:17:08.920Z,8.30
2019-05-05T06:19:40.078Z,8.40
2019-05-05T06:22:11.013Z,8.40
2019-05-05T06:24:43.989Z,8.40
2019-05-05T06:27:15.639Z,8.40
2019-05-05T06:29:46.832Z,8.50
2019-05-05T06:32:18.259Z,8.50
2019-05-05T06:34:49.427Z,8.50
2019-05-05T06:37:20.424Z,8.50
2019-05-05T06:39:54.407Z,8.60
2019-05-05T06:42:34.165Z,8.70
2019-05-05T06:45:20.270Z,8.70
2019-05-05T06:47:51.436Z,8.70
2019-05-05T06:50:24.183Z,8.60
2019-05-05T06:52:55.263Z,8.70
2019-05-05T06:55:26.472Z,8.80
2019-05-05T06:57:57.382Z,8.70
2019-05-05T07:00:28.548Z,8.70
2019-05-05T07:02:59.695Z,8.70
2019-05-05T07:05:30.847Z,8.80
2019-05-05T07:08:04.249Z,8.90
2019-05-05T07:10:35.384Z,8.90
2019-05-05T07:13:06.286Z,9.00
2019-05-05T07:15:37.511Z,9.10
2019-05-05T07:18:08.813Z,9.10
2019-05-05T07:20:40.283Z,9.20
2019-05-05T07:23:11.529Z,9.10
2019-05-05T07:25:45.673Z,9.00
2019-05-05T07:28:15.507Z,8.90
2019-05-05T07:30:46.789Z,8.90
2019-05-05T07:33:18.050Z,9.00
2019-05-05T07:36:02.916Z,9.20
2019-05-05T07:38:30.515Z,9.40
2019-05-05T07:41:03.552Z,9.70
2019-05-05T07:43:34.528Z,9.60
2019-05-05T07:46:05.779Z,9.50
2019-05-05T07:48:36.936Z,9.40
2019-05-05T07:51:13.931Z,9.40
2019-05-05T07:53:45.063Z,9.40
2019-05-05T07:56:17.279Z,9.40
2019-05-05T07:58:48.523Z,9.40
2019-05-05T08:01:19.428Z,9.50
2019-05-05T08:03:50.471Z,9.60
2019-05-05T08:06:23.581Z,9.70
2019-05-05T08:08:54.671Z,9.90
2019-05-05T08:11:25.880Z,9.90
2019-05-05T08:13:56.767Z,9.90
2019-05-05T08:16:45.995Z,9.80
2019-05-05T08:19:36.724Z,9.70
2019-05-05T08:22:08.019Z,9.60
2019-05-05T08:25:04.074Z,9.50
2019-05-05T08:27:53.918Z,9.50
2019-05-05T08:30:47.527Z,9.70
2019-05-05T08:33:18.701Z,9.80
2019-05-05T08:35:50.693Z,9.80
2019-05-05T08:38:24.232Z,9.90
2019-05-05T08:40:55.551Z,9.90
2019-05-05T08:43:26.800Z,9.90
2019-05-05T08:45:57.735Z,9.90
2019-05-05T08:48:29.450Z,9.90
2019-05-05T08:51:00.355Z,10.00
2019-05-05T08:53:42.561Z,10.00
2019-05-05T08:56:04.232Z,10.10
2019-05-05T08:58:35.728Z,10.10
2019-05-05T09:01:06.676Z,10.20
2019-05-05T09:03:38.248Z,10.40
2019-05-05T09:06:09.412Z,10.50
2019-05-05T09:08:40.369Z,10.50
2019-05-05T09:11:13.831Z,10.70
2019-05-05T09:13:44.760Z,10.90
2019-05-05T09:16:16.299Z,11.10
2019-05-05T09:18:59.998Z,11.10
2019-05-05T09:21:31.148Z,11.00
2019-05-05T09:24:18.915Z,10.90
2019-05-05T09:26:58.491Z,10.90
2019-05-05T09:29:34.704Z,10.90
2019-05-05T09:32:07.486Z,11.00
2019-05-05T09:34:38.557Z,11.20
2019-05-05T09:37:09.631Z,11.30
2019-05-05T09:39:40.975Z,11.40
2019-05-05T09:42:11.904Z,11.40
2019-05-05T09:44:43.830Z,11.40
2019-05-05T09:47:15.196Z,11.30
2019-05-05T09:49:46.167Z,10.90
2019-05-05T09:52:17.427Z,10.70
2019-05-05T09:54:48.492Z,10.40
2019-05-05T09:57:19.760Z,10.20
2019-05-05T09:59:51.087Z,10.00
2019-05-05T10:02:23.828Z,9.90
2019-05-05T10:04:54.803Z,10.00
2019-05-05T10:07:26.111Z,10.20
2019-05-05T10:09:57.276Z,10.10
2019-05-05T10:12:28.353Z,10.10
2019-05-05T10:14:59.575Z,10.10
2019-05-05T10:17:30.847Z,10.20
2019-05-05T10:20:03.861Z,10.40
2019-05-05T10:22:35.529Z,10.50
2019-05-05T10:25:25.511Z,10.60
2019-05-05T10:27:57.414Z,10.60
2019-05-05T10:30:28.749Z,10.60
2019-05-05T10:33:00.095Z,10.80
2019-05-05T10:35:31.288Z,11.00
2019-05-05T10:38:02.921Z,11.00
2019-05-05T10:40:34.743Z,11.20
2019-05-05T10:43:06.059Z,11.20
2019-05-05T10:45:37.228Z,11.30
2019-05-05T10:48:08.527Z,11.60
2019-05-05T10:50:39.826Z,11.80
2019-05-05T10:53:13.498Z,12.00
2019-05-05T10:55:44.981Z,12.10
2019-05-05T10:58:16.208Z,12.00
2019-05-05T11:00:54.454Z,11.90
2019-05-05T11:03:26.000Z,11.90
2019-05-05T11:05:57.523Z,12.10
2019-05-05T11:08:30.809Z,12.20
2019-05-05T11:11:04.257Z,12.10
2019-05-05T11:13:35.735Z,12.00
2019-05-05T11:16:07.152Z,12.10
2019-05-05T11:18:38.488Z,12.10
2019-05-05T11:21:10.111Z,12.00
2019-05-05T11:23:41.160Z,12.00
2019-05-05T11:26:14.462Z,12.00
2019-05-05T11:28:46.817Z,12.10
2019-05-05T11:31:21.128Z,12.20
2019-05-05T11:34:20.730Z,12.20
2019-05-05T11:37:19.791Z,12.00
2019-05-05T11:39:50.996Z,11.70
2019-05-05T11:42:23.883Z,11.50
2019-05-05T11:44:55.138Z,11.50
2019-05-05T11:47:29.700Z,11.60
2019-05-05T11:50:01.127Z,11.90
2019-05-05T11:52:33.720Z,11.90
2019-05-05T11:55:11.463Z,12.00
2019-05-05T11:57:37.815Z,11.80
2019-05-05T12:00:08.897Z,11.50
2019-05-05T12:02:40.151Z,11.30
2019-05-05T12:05:13.990Z,11.20
2019-05-05T12:07:44.232Z,11.10
2019-05-05T12:10:34.514Z,11.20
2019-05-05T12:13:07.342Z,11.40
2019-05-05T12:15:38.532Z,11.50
2019-05-05T12:18:09.460Z,11.60
2019-05-05T12:20:40.937Z,11.60
2019-05-05T12:23:11.911Z,11.60
2019-05-05T12:26:07.396Z,11.70
2019-05-05T12:28:43.987Z,11.70
2019-05-05T12:31:22.124Z,11.70
2019-05-05T12:33:54.741Z,11.70
2019-05-05T12:36:26.239Z,11.90
2019-05-05T12:38:57.163Z,12.00
2019-05-05T12:41:28.363Z,12.10
2019-05-05T12:44:00.537Z,12.10
2019-05-05T12:46:44.603Z,12.00
2019-05-05T12:49:17.089Z,12.00
2019-05-05T12:51:48.400Z,11.90
2019-05-05T12:54:19.576Z,11.80
2019-05-05T12:56:50.790Z,11.70
2019-05-05T12:59:25.279Z,11.60
2019-05-05T13:01:56.644Z,11.60
2019-05-05T13:04:27.899Z,11.70
2019-05-05T13:06:59.444Z,11.70
2019-05-05T13:09:31.027Z,11.80
2019-05-05T13:12:02.023Z,11.70
2019-05-05T13:14:33.603Z,11.70
2019-05-05T13:17:05.250Z,11.70
2019-05-05T13:19:46.463Z,11.70
2019-05-05T13:22:33.827Z,11.70
2019-05-05T13:25:23.650Z,11.50
2019-05-05T13:27:57.327Z,11.30
2019-05-05T13:30:28.416Z,11.30
2019-05-05T13:32:59.827Z,11.30
2019-05-05T13:35:31.153Z,11.40
2019-05-05T13:38:04.027Z,11.50
2019-05-05T13:40:35.171Z,11.60
2019-05-05T13:43:07.648Z,11.70
2019-05-05T13:46:00.453Z,11.70
2019-05-05T13:48:33.368Z,11.80
2019-05-05T13:51:05.587Z,12.00
2019-05-05T13:53:39.067Z,12.00
2019-05-05T13:56:12.463Z,12.00
2019-05-05T13:58:43.814Z,12.00
2019-05-05T14:01:15.559Z,11.80
2019-05-05T14:03:46.823Z,11.70
2019-05-05T14:06:18.248Z,11.70
2019-05-05T14:08:49.507Z,11.70
2019-05-05T14:11:20.747Z,11.70
2019-05-05T14:13:51.907Z,11.60
2019-05-05T14:16:23.067Z,11.60
2019-05-05T14:18:54.247Z,11.60
2019-05-05T14:21:25.235Z,11.60
2019-05-05T14:24:19.124Z,11.70
2019-05-05T14:26:50.301Z,11.60
2019-05-05T14:29:39.426Z,11.60
2019-05-05T14:32:13.498Z,11.60
2019-05-05T14:34:48.760Z,11.60
2019-05-05T14:37:34.052Z,11.60
2019-05-05T14:40:07.515Z,11.50
2019-05-05T14:42:39.012Z,11.50
2019-05-05T14:45:12.229Z,11.50
2019-05-05T14:47:44.224Z,11.60
2019-05-05T14:50:16.704Z,11.80
2019-05-05T14:52:47.760Z,11.90
2019-05-05T14:55:18.848Z,12.00
2019-05-05T14:57:50.364Z,12.10
2019-05-05T15:00:24.217Z,12.20
2019-05-05T15:02:55.450Z,12.20
2019-05-05T15:05:41.199Z,12.20
2019-05-05T15:08:17.855Z,12.10
2019-05-05T15:11:14.320Z,12.10
2019-05-05T15:13:45.655Z,11.90
2019-05-05T15:16:16.648Z,11.90
2019-05-05T15:18:47.795Z,11.80
2019-05-05T15:21:18.963Z,11.80
2019-05-05T15:23:50.192Z,11.70
2019-05-05T15:26:21.361Z,11.70
2019-05-05T15:28:59.306Z,11.60
2019-05-05T15:31:25.112Z,11.70
2019-05-05T15:33:56.036Z,11.70
2019-05-05T15:36:29.673Z,11.70
2019-05-05T15:39:00.972Z,11.70
2019-05-05T15:41:34.329Z,11.70
2019-05-05T15:44:05.767Z,11.60
2019-05-05T15:46:36.956Z,11.60
2019-05-05T15:49:08.138Z,11.60
2019-05-05T15:51:39.079Z,11.50
2019-05-05T15:54:10.244Z,11.50
2019-05-05T15:56:41.452Z,11.40
2019-05-05T15:59:14.346Z,11.40
2019-05-05T16:01:45.447Z,11.50
2019-05-05T16:04:16.615Z,11.50
2019-05-05T16:06:48.039Z,11.70
2019-05-05T16:09:19.194Z,11.60
2019-05-05T16:11:50.353Z,11.50
2019-05-05T16:14:23.814Z,11.50
2019-05-05T16:17:14.431Z,11.40
2019-05-05T16:19:54.241Z,11.30
2019-05-05T16:22:47.479Z,11.30
2019-05-05T16:25:18.838Z,11.40
2019-05-05T16:27:50.032Z,11.40
2019-05-05T16:30:23.443Z,11.40
2019-05-05T16:32:55.248Z,11.30
2019-05-05T16:35:26.565Z,11.30
2019-05-05T16:37:57.744Z,11.30
2019-05-05T16:40:28.936Z,11.20
2019-05-05T16:43:01.479Z,11.30
2019-05-05T16:45:34.042Z,11.30
2019-05-05T16:48:05.852Z,11.20
2019-05-05T16:50:37.045Z,11.10
2019-05-05T16:53:08.011Z,11.10
2019-05-05T16:55:54.891Z,11.00
2019-05-05T16:58:26.379Z,11.00
2019-05-05T17:00:57.327Z,10.90
2019-05-05T17:03:28.559Z,10.80
2019-05-05T17:05:59.616Z,10.70
2019-05-05T17:08:31.088Z,10.70
2019-05-05T17:11:02.575Z,10.80
2019-05-05T17:13:44.579Z,10.80
2019-05-05T17:16:35.269Z,10.90
2019-05-05T17:19:14.011Z,11.00
2019-05-05T17:22:04.508Z,11.10
2019-05-05T17:24:38.635Z,11.10
2019-05-05T17:27:08.417Z,11.10
2019-05-05T17:29:39.349Z,11.10
2019-05-05T17:32:10.305Z,10.90
2019-05-05T17:34:41.652Z,10.70
2019-05-05T17:37:13.440Z,10.60
2019-05-05T17:39:51.224Z,10.60
2019-05-05T17:42:34.797Z,10.50
2019-05-05T17:45:16.123Z,10.50
2019-05-05T17:47:55.583Z,10.40
2019-05-05T17:50:45.600Z,10.40
2019-05-05T17:53:24.607Z,10.30
2019-05-05T17:55:56.853Z,10.30
2019-05-05T17:58:28.189Z,10.20
2019-05-05T18:01:00.856Z,10.20
2019-05-05T18:03:33.986Z,10.10
2019-05-05T18:06:23.623Z,10.10
2019-05-05T18:08:59.705Z,10.10
2019-05-05T18:11:48.135Z,10.00
2019-05-05T18:14:24.034Z,10.10
2019-05-05T18:16:55.396Z,10.00
2019-05-05T18:19:26.643Z,10.00
2019-05-05T18:21:57.583Z,10.00
2019-05-05T18:24:28.623Z,10.00
2019-05-05T18:26:59.900Z,9.90
2019-05-05T18:29:30.857Z,9.80
2019-05-05T18:32:04.210Z,9.80
2019-05-05T18:34:34.855Z,9.70
2019-05-05T18:37:06.010Z,9.70
2019-05-05T18:39:37.147Z,9.70
2019-05-05T18:42:13.998Z,9.70
2019-05-05T18:44:50.908Z,9.70
2019-05-05T18:47:22.155Z,9.70
2019-05-05T18:49:54.097Z,9.60
2019-05-05T18:52:25.304Z,9.60
2019-05-05T18:54:56.514Z,9.50
2019-05-05T18:57:27.667Z,9.40
2019-05-05T18:59:59.042Z,9.40
2019-05-05T19:02:45.076Z,9.40
2019-05-05T19:05:30.305Z,9.40
2019-05-05T19:08:24.470Z,9.40
2019-05-05T19:10:55.483Z,9.40
2019-05-05T19:13:26.727Z,9.30
2019-05-05T19:15:58.132Z,9.20
2019-05-05T19:18:29.220Z,9.30
2019-05-05T19:21:14.261Z,9.20
2019-05-05T19:23:45.674Z,9.10
2019-05-05T19:26:16.580Z,9.10
2019-05-05T19:28:50.282Z,9.20
2019-05-05T19:31:21.093Z,9.30
2019-05-05T19:33:55.686Z,9.20
2019-05-05T19:36:27.507Z,9.20
2019-05-05T19:38:59.415Z,9.20
2019-05-05T19:41:30.688Z,9.10
2019-05-05T19:44:04.706Z,9.10
2019-05-05T19:46:44.118Z,9.10
2019-05-05T19:49:16.991Z,9.10
2019-05-05T19:51:48.767Z,9.10
2019-05-05T19:54:19.927Z,9.00
2019-05-05T19:56:51.099Z,8.90
2019-05-05T19:59:22.347Z,8.90
2019-05-05T20:01:54.026Z,8.80
2019-05-05T20:04:25.316Z,8.80
2019-05-05T20:06:56.504Z,8.80
2019-05-05T20:09:27.544Z,8.70
2019-05-05T20:11:58.715Z,8.70
2019-05-05T20:14:29.951Z,8.60
2019-05-05T20:17:23.135Z,8.60
2019-05-05T20:19:54.733Z,8.60
2019-05-05T20:22:26.213Z,8.60
2019-05-05T20:24:57.465Z,8.50
2019-05-05T20:27:28.619Z,8.60
2019-05-05T20:30:00.009Z,8.50
2019-05-05T20:32:50.944Z,8.50
2019-05-05T20:35:41.826Z,8.50
2019-05-05T20:38:15.958Z,8.40
2019-05-05T20:41:06.635Z,8.30
2019-05-05T20:43:37.804Z,8.30
2019-05-05T20:46:10.099Z,8.30
2019-05-05T20:48:41.522Z,8.20
2019-05-05T20:51:13.784Z,8.20
2019-05-05T20:53:48.590Z,8.20
2019-05-05T20:56:20.190Z,8.10
2019-05-05T20:58:51.169Z,8.10
2019-05-05T21:01:24.631Z,8.10
2019-05-05T21:03:58.436Z,8.00
2019-05-05T21:06:29.647Z,7.90
2019-05-05T21:09:01.003Z,7.90
2019-05-05T21:11:33.995Z,7.80
2019-05-05T21:14:05.235Z,7.70
2019-05-05T21:16:37.555Z,7.60
2019-05-05T21:19:08.720Z,7.60
2019-05-05T21:21:41.875Z,7.50
2019-05-05T21:24:13.040Z,7.60
2019-05-05T21:26:48.014Z,7.50
2019-05-05T21:29:19.171Z,7.40
2019-05-05T21:31:50.317Z,7.40
2019-05-05T21:34:21.279Z,7.30
2019-05-05T21:36:54.011Z,7.20
2019-05-05T21:39:28.411Z,7.10
2019-05-05T21:42:01.392Z,7.00
2019-05-05T21:44:34.363Z,7.00
2019-05-05T21:47:05.700Z,7.00
2019-05-05T21:49:36.641Z,7.00
2019-05-05T21:52:17.980Z,7.00
2019-05-05T21:55:13.780Z,6.90
2019-05-05T21:58:04.369Z,6.80
2019-05-05T22:00:54.830Z,6.70
2019-05-05T22:03:38.149Z,6.70
2019-05-05T22:06:14.642Z,6.60
2019-05-05T22:08:46.037Z,6.60
2019-05-05T22:11:17.252Z,6.60
2019-05-05T22:13:48.579Z,6.50
2019-05-05T22:16:19.805Z,6.50
2019-05-05T22:18:51.607Z,6.40
2019-05-05T22:21:36.167Z,6.40
2019-05-05T22:24:18.485Z,6.40
2019-05-05T22:26:49.791Z,6.30
2019-05-05T22:29:20.979Z,6.30
2019-05-05T22:31:51.975Z,6.30
2019-05-05T22:34:24.206Z,6.30
2019-05-05T22:36:55.249Z,6.30
2019-05-05T22:39:26.613Z,6.30
2019-05-05T22:41:57.761Z,6.30
2019-05-05T22:44:28.983Z,6.30
2019-05-05T22:47:00.142Z,6.20
2019-05-05T22:49:31.315Z,6.20
2019-05-05T22:52:03.800Z,6.20
2019-05-05T22:54:34.973Z,6.20
2019-05-05T22:57:05.955Z,6.20
2019-05-05T22:59:36.923Z,6.20
2019-05-05T23:02:08.357Z,6.20
2019-05-05T23:04:48.464Z,6.30
2019-05-05T23:07:30.690Z,6.30
2019-05-05T23:10:04.581Z,6.30
2019-05-05T23:12:35.685Z,6.30
2019-05-05T23:15:07.572Z,6.30
2019-05-05T23:18:00.410Z,6.30
2019-05-05T23:21:20.959Z,6.20
2019-05-05T23:24:14.362Z,6.10
2019-05-05T23:26:45.924Z,5.90
2019-05-05T23:29:17.030Z,5.80
2019-05-05T23:31:48.019Z,5.70
2019-05-05T23:34:19.499Z,5.70
2019-05-05T23:36:50.728Z,5.70
2019-05-05T23:39:24.270Z,5.70
2019-05-05T23:41:55.880Z,5.70
2019-05-05T23:44:26.789Z,5.70
2019-05-05T23:46:58.023Z,5.70
2019-05-05T23:49:28.958Z,5.70
2019-05-05T23:51:59.875Z,5.80
2019-05-05T23:54:31.060Z,5.90
2019-05-05T23:57:04.552Z,5.90
2019-05-05T23:59:35.351Z,5.90
